sensor_id;sensor_type;location;lat;lon;timestamp;temperature;humidity
19803;DHT22;66074;50.764;6.090;2023-01-16T00:00:19;6.50;96.20
19803;DHT22;66074;50.764;6.090;2023-01-16T00:02:45;6.50;96.30
19803;DHT22;66074;50.764;6.090;2023-01-16T00:05:11;6.50;96.20
19803;DHT22;66074;50.764;6.090;2023-01-16T00:07:37;6.50;96.20
19803;DHT22;66074;50.764;6.090;2023-01-16T00:10:03;6.40;96.20
19803;DHT22;66074;50.764;6.090;2023-01-16T00:12:29;6.40;96.20
19803;DHT22;66074;50.764;6.090;2023-01-16T00:14:55;6.40;96.30
19803;DHT22;66074;50.764;6.090;2023-01-16T00:17:21;6.40;96.30
19803;DHT22;66074;50.764;6.090;2023-01-16T00:19:46;6.40;96.40
19803;DHT22;66074;50.764;6.090;2023-01-16T00:22:12;6.40;96.40
19803;DHT22;66074;50.764;6.090;2023-01-16T00:24:37;6.40;96.40
19803;DHT22;66074;50.764;6.090;2023-01-16T00:27:03;6.40;96.50
19803;DHT22;66074;50.764;6.090;2023-01-16T00:29:28;6.40;96.40
19803;DHT22;66074;50.764;6.090;2023-01-16T00:31:54;6.50;96.60
19803;DHT22;66074;50.764;6.090;2023-01-16T00:34:20;6.50;96.60
19803;DHT22;66074;50.764;6.090;2023-01-16T00:36:45;6.50;96.60
19803;DHT22;66074;50.764;6.090;2023-01-16T00:39:11;6.70;96.70
19803;DHT22;66074;50.764;6.090;2023-01-16T00:41:36;6.50;96.70
19803;DHT22;66074;50.764;6.090;2023-01-16T00:44:02;6.60;96.70
19803;DHT22;66074;50.764;6.090;2023-01-16T00:46:28;6.60;96.70
19803;DHT22;66074;50.764;6.090;2023-01-16T00:48:55;6.50;96.70
19803;DHT22;66074;50.764;6.090;2023-01-16T00:51:21;6.50;96.60
19803;DHT22;66074;50.764;6.090;2023-01-16T00:53:46;6.40;96.60
19803;DHT22;66074;50.764;6.090;2023-01-16T00:56:12;6.40;96.80
19803;DHT22;66074;50.764;6.090;2023-01-16T00:58:37;6.40;96.70
19803;DHT22;66074;50.764;6.090;2023-01-16T01:01:03;6.40;96.70
19803;DHT22;66074;50.764;6.090;2023-01-16T01:03:29;6.40;96.80
19803;DHT22;66074;50.764;6.090;2023-01-16T01:05:54;6.40;96.60
19803;DHT22;66074;50.764;6.090;2023-01-16T01:08:20;6.40;96.60
19803;DHT22;66074;50.764;6.090;2023-01-16T01:10:45;6.40;96.70
19803;DHT22;66074;50.764;6.090;2023-01-16T01:13:12;6.40;96.70
19803;DHT22;66074;50.764;6.090;2023-01-16T01:15:38;6.40;96.70
19803;DHT22;66074;50.764;6.090;2023-01-16T01:18:04;6.40;96.60
19803;DHT22;66074;50.764;6.090;2023-01-16T01:20:30;6.40;96.50
19803;DHT22;66074;50.764;6.090;2023-01-16T01:22:56;6.30;96.60
19803;DHT22;66074;50.764;6.090;2023-01-16T01:25:22;6.30;96.60
19803;DHT22;66074;50.764;6.090;2023-01-16T01:27:47;6.30;96.50
19803;DHT22;66074;50.764;6.090;2023-01-16T01:30:13;6.30;96.60
19803;DHT22;66074;50.764;6.090;2023-01-16T01:32:39;6.30;96.50
19803;DHT22;66074;50.764;6.090;2023-01-16T01:35:06;6.20;96.60
19803;DHT22;66074;50.764;6.090;2023-01-16T01:37:32;6.20;96.60
19803;DHT22;66074;50.764;6.090;2023-01-16T01:39:58;6.20;96.70
19803;DHT22;66074;50.764;6.090;2023-01-16T01:42:23;6.20;96.60
19803;DHT22;66074;50.764;6.090;2023-01-16T01:45:36;6.20;96.60
19803;DHT22;66074;50.764;6.090;2023-01-16T01:53:12;6.10;96.60
19803;DHT22;66074;50.764;6.090;2023-01-16T01:55:40;6.10;96.60
19803;DHT22;66074;50.764;6.090;2023-01-16T01:58:07;6.10;96.60
19803;DHT22;66074;50.764;6.090;2023-01-16T02:00:33;6.00;96.60
19803;DHT22;66074;50.764;6.090;2023-01-16T02:03:11;6.00;96.60
19803;DHT22;66074;50.764;6.090;2023-01-16T02:05:42;6.10;96.70
19803;DHT22;66074;50.764;6.090;2023-01-16T02:08:15;6.20;96.60
19803;DHT22;66074;50.764;6.090;2023-01-16T02:10:47;6.20;96.60
19803;DHT22;66074;50.764;6.090;2023-01-16T02:13:14;6.20;96.60
19803;DHT22;66074;50.764;6.090;2023-01-16T02:15:40;6.30;96.60
19803;DHT22;66074;50.764;6.090;2023-01-16T02:18:26;6.40;96.70
19803;DHT22;66074;50.764;6.090;2023-01-16T02:24:07;6.40;96.80
19803;DHT22;66074;50.764;6.090;2023-01-16T02:29:40;6.30;96.70
19803;DHT22;66074;50.764;6.090;2023-01-16T02:32:43;6.20;96.80
19803;DHT22;66074;50.764;6.090;2023-01-16T02:35:26;6.30;97.00
19803;DHT22;66074;50.764;6.090;2023-01-16T02:37:57;6.30;96.80
19803;DHT22;66074;50.764;6.090;2023-01-16T02:40:43;6.20;96.90
19803;DHT22;66074;50.764;6.090;2023-01-16T02:43:33;6.20;96.70
19803;DHT22;66074;50.764;6.090;2023-01-16T02:51:32;6.20;96.70
19803;DHT22;66074;50.764;6.090;2023-01-16T02:54:06;6.30;96.70
19803;DHT22;66074;50.764;6.090;2023-01-16T02:56:58;6.40;96.70
19803;DHT22;66074;50.764;6.090;2023-01-16T02:59:27;6.30;96.70
19803;DHT22;66074;50.764;6.090;2023-01-16T03:01:56;6.30;96.60
19803;DHT22;66074;50.764;6.090;2023-01-16T03:04:39;6.30;96.60
19803;DHT22;66074;50.764;6.090;2023-01-16T03:09:48;6.30;96.50
19803;DHT22;66074;50.764;6.090;2023-01-16T03:12:34;6.40;96.50
19803;DHT22;66074;50.764;6.090;2023-01-16T03:15:36;6.40;96.40
19803;DHT22;66074;50.764;6.090;2023-01-16T03:21:04;6.40;96.30
19803;DHT22;66074;50.764;6.090;2023-01-16T03:26:33;6.50;96.20
19803;DHT22;66074;50.764;6.090;2023-01-16T03:29:23;6.50;96.20
19803;DHT22;66074;50.764;6.090;2023-01-16T03:34:50;6.50;96.20
19803;DHT22;66074;50.764;6.090;2023-01-16T03:37:24;6.50;96.10
19803;DHT22;66074;50.764;6.090;2023-01-16T03:40:02;6.50;96.20
19803;DHT22;66074;50.764;6.090;2023-01-16T03:42:43;6.50;96.20
19803;DHT22;66074;50.764;6.090;2023-01-16T03:45:28;6.60;96.10
19803;DHT22;66074;50.764;6.090;2023-01-16T03:48:07;6.60;96.20
19803;DHT22;66074;50.764;6.090;2023-01-16T03:50:34;6.60;96.20
19803;DHT22;66074;50.764;6.090;2023-01-16T03:53:06;6.60;96.20
19803;DHT22;66074;50.764;6.090;2023-01-16T03:55:49;6.70;96.10
19803;DHT22;66074;50.764;6.090;2023-01-16T03:58:43;6.70;96.10
19803;DHT22;66074;50.764;6.090;2023-01-16T04:03:47;6.80;96.40
19803;DHT22;66074;50.764;6.090;2023-01-16T04:06:22;6.80;96.20
19803;DHT22;66074;50.764;6.090;2023-01-16T04:08:51;6.80;96.10
19803;DHT22;66074;50.764;6.090;2023-01-16T04:11:21;6.80;96.10
19803;DHT22;66074;50.764;6.090;2023-01-16T04:13:50;6.90;96.20
19803;DHT22;66074;50.764;6.090;2023-01-16T04:16:19;7.00;96.20
19803;DHT22;66074;50.764;6.090;2023-01-16T04:18:46;6.90;96.10
19803;DHT22;66074;50.764;6.090;2023-01-16T04:21:13;6.90;96.20
19803;DHT22;66074;50.764;6.090;2023-01-16T04:23:39;7.00;96.20
19803;DHT22;66074;50.764;6.090;2023-01-16T04:26:04;7.00;96.20
19803;DHT22;66074;50.764;6.090;2023-01-16T04:28:30;7.00;96.10
19803;DHT22;66074;50.764;6.090;2023-01-16T04:30:55;7.10;96.20
19803;DHT22;66074;50.764;6.090;2023-01-16T04:33:21;7.20;96.10
19803;DHT22;66074;50.764;6.090;2023-01-16T04:35:47;7.10;96.00
19803;DHT22;66074;50.764;6.090;2023-01-16T04:38:12;7.10;96.00
19803;DHT22;66074;50.764;6.090;2023-01-16T04:40:38;7.20;96.10
19803;DHT22;66074;50.764;6.090;2023-01-16T04:43:04;7.20;96.10
19803;DHT22;66074;50.764;6.090;2023-01-16T04:45:29;7.20;96.10
19803;DHT22;66074;50.764;6.090;2023-01-16T04:47:55;7.20;96.00
19803;DHT22;66074;50.764;6.090;2023-01-16T04:50:21;7.20;95.90
19803;DHT22;66074;50.764;6.090;2023-01-16T04:52:47;7.20;95.90
19803;DHT22;66074;50.764;6.090;2023-01-16T04:55:13;7.20;95.90
19803;DHT22;66074;50.764;6.090;2023-01-16T04:57:38;7.20;95.90
19803;DHT22;66074;50.764;6.090;2023-01-16T05:00:06;7.30;95.80
19803;DHT22;66074;50.764;6.090;2023-01-16T05:02:32;7.20;95.80
19803;DHT22;66074;50.764;6.090;2023-01-16T05:04:58;7.20;95.90
19803;DHT22;66074;50.764;6.090;2023-01-16T05:07:23;7.20;95.90
19803;DHT22;66074;50.764;6.090;2023-01-16T05:09:52;7.20;95.80
19803;DHT22;66074;50.764;6.090;2023-01-16T05:12:17;7.20;95.80
19803;DHT22;66074;50.764;6.090;2023-01-16T05:14:43;7.20;95.90
19803;DHT22;66074;50.764;6.090;2023-01-16T05:17:09;7.30;95.80
19803;DHT22;66074;50.764;6.090;2023-01-16T05:19:34;7.30;95.80
19803;DHT22;66074;50.764;6.090;2023-01-16T05:22:00;7.30;95.50
19803;DHT22;66074;50.764;6.090;2023-01-16T05:24:25;7.40;95.70
19803;DHT22;66074;50.764;6.090;2023-01-16T05:26:51;7.20;95.50
19803;DHT22;66074;50.764;6.090;2023-01-16T05:29:17;7.30;95.70
19803;DHT22;66074;50.764;6.090;2023-01-16T05:31:42;7.30;95.80
19803;DHT22;66074;50.764;6.090;2023-01-16T05:34:09;7.30;95.70
19803;DHT22;66074;50.764;6.090;2023-01-16T05:36:35;7.40;95.70
19803;DHT22;66074;50.764;6.090;2023-01-16T05:39:01;7.30;95.60
19803;DHT22;66074;50.764;6.090;2023-01-16T05:41:26;7.30;95.60
19803;DHT22;66074;50.764;6.090;2023-01-16T05:43:52;7.30;95.60
19803;DHT22;66074;50.764;6.090;2023-01-16T05:46:17;7.40;95.60
19803;DHT22;66074;50.764;6.090;2023-01-16T05:48:43;7.40;95.60
19803;DHT22;66074;50.764;6.090;2023-01-16T05:51:09;7.40;95.40
19803;DHT22;66074;50.764;6.090;2023-01-16T05:53:34;7.40;95.40
19803;DHT22;66074;50.764;6.090;2023-01-16T05:56:09;7.30;95.40
19803;DHT22;66074;50.764;6.090;2023-01-16T05:58:36;7.40;95.40
19803;DHT22;66074;50.764;6.090;2023-01-16T06:01:01;7.40;95.30
19803;DHT22;66074;50.764;6.090;2023-01-16T06:03:27;7.40;95.20
19803;DHT22;66074;50.764;6.090;2023-01-16T06:05:53;7.40;95.30
19803;DHT22;66074;50.764;6.090;2023-01-16T06:08:18;7.40;95.30
19803;DHT22;66074;50.764;6.090;2023-01-16T06:10:44;7.40;95.20
19803;DHT22;66074;50.764;6.090;2023-01-16T06:13:10;7.50;95.30
19803;DHT22;66074;50.764;6.090;2023-01-16T06:15:36;7.50;95.20
19803;DHT22;66074;50.764;6.090;2023-01-16T06:18:01;7.50;95.20
19803;DHT22;66074;50.764;6.090;2023-01-16T06:20:27;7.50;95.20
19803;DHT22;66074;50.764;6.090;2023-01-16T06:22:52;7.50;95.30
19803;DHT22;66074;50.764;6.090;2023-01-16T06:25:18;7.50;95.20
19803;DHT22;66074;50.764;6.090;2023-01-16T06:27:48;7.60;95.30
19803;DHT22;66074;50.764;6.090;2023-01-16T06:30:14;7.60;95.10
19803;DHT22;66074;50.764;6.090;2023-01-16T06:32:40;7.60;95.20
19803;DHT22;66074;50.764;6.090;2023-01-16T06:35:06;7.60;95.10
19803;DHT22;66074;50.764;6.090;2023-01-16T06:37:32;7.60;95.00
19803;DHT22;66074;50.764;6.090;2023-01-16T06:39:57;7.60;95.10
19803;DHT22;66074;50.764;6.090;2023-01-16T06:42:25;7.60;95.20
19803;DHT22;66074;50.764;6.090;2023-01-16T06:44:51;7.60;95.20
19803;DHT22;66074;50.764;6.090;2023-01-16T06:47:16;7.60;95.50
19803;DHT22;66074;50.764;6.090;2023-01-16T06:49:42;7.70;95.40
19803;DHT22;66074;50.764;6.090;2023-01-16T06:52:07;7.70;95.50
19803;DHT22;66074;50.764;6.090;2023-01-16T06:54:33;7.60;95.30
19803;DHT22;66074;50.764;6.090;2023-01-16T06:56:59;7.60;95.40
19803;DHT22;66074;50.764;6.090;2023-01-16T06:59:25;7.60;95.50
19803;DHT22;66074;50.764;6.090;2023-01-16T07:01:50;7.50;95.30
19803;DHT22;66074;50.764;6.090;2023-01-16T07:04:16;7.60;95.50
19803;DHT22;66074;50.764;6.090;2023-01-16T07:06:42;7.50;95.40
19803;DHT22;66074;50.764;6.090;2023-01-16T07:09:09;7.50;95.50
19803;DHT22;66074;50.764;6.090;2023-01-16T07:11:35;7.50;95.50
19803;DHT22;66074;50.764;6.090;2023-01-16T07:14:01;7.50;95.50
19803;DHT22;66074;50.764;6.090;2023-01-16T07:16:45;7.50;95.50
19803;DHT22;66074;50.764;6.090;2023-01-16T07:19:29;7.50;95.60
19803;DHT22;66074;50.764;6.090;2023-01-16T07:22:14;7.50;95.60
19803;DHT22;66074;50.764;6.090;2023-01-16T07:24:59;7.40;95.40
19803;DHT22;66074;50.764;6.090;2023-01-16T07:27:25;7.40;95.30
19803;DHT22;66074;50.764;6.090;2023-01-16T07:29:51;7.40;95.30
19803;DHT22;66074;50.764;6.090;2023-01-16T07:32:18;7.40;95.30
19803;DHT22;66074;50.764;6.090;2023-01-16T07:34:43;7.30;95.30
19803;DHT22;66074;50.764;6.090;2023-01-16T07:37:09;7.40;95.40
19803;DHT22;66074;50.764;6.090;2023-01-16T07:39:36;7.30;95.20
19803;DHT22;66074;50.764;6.090;2023-01-16T07:42:06;7.30;95.10
19803;DHT22;66074;50.764;6.090;2023-01-16T07:44:32;7.20;94.80
19803;DHT22;66074;50.764;6.090;2023-01-16T07:46:58;7.20;94.90
19803;DHT22;66074;50.764;6.090;2023-01-16T07:49:24;7.20;95.00
19803;DHT22;66074;50.764;6.090;2023-01-16T07:51:49;7.20;95.00
19803;DHT22;66074;50.764;6.090;2023-01-16T07:54:15;7.10;94.90
19803;DHT22;66074;50.764;6.090;2023-01-16T07:56:41;7.10;94.80
19803;DHT22;66074;50.764;6.090;2023-01-16T07:59:06;7.10;95.00
19803;DHT22;66074;50.764;6.090;2023-01-16T08:01:32;7.00;94.90
19803;DHT22;66074;50.764;6.090;2023-01-16T08:03:58;7.00;95.00
19803;DHT22;66074;50.764;6.090;2023-01-16T08:06:24;7.00;95.30
19803;DHT22;66074;50.764;6.090;2023-01-16T08:08:49;7.00;95.00
19803;DHT22;66074;50.764;6.090;2023-01-16T08:11:15;7.00;95.00
19803;DHT22;66074;50.764;6.090;2023-01-16T08:13:59;7.00;95.10
19803;DHT22;66074;50.764;6.090;2023-01-16T08:16:25;7.00;95.10
19803;DHT22;66074;50.764;6.090;2023-01-16T08:18:51;7.00;95.10
19803;DHT22;66074;50.764;6.090;2023-01-16T08:21:17;7.00;95.00
19803;DHT22;66074;50.764;6.090;2023-01-16T08:23:43;6.90;95.00
19803;DHT22;66074;50.764;6.090;2023-01-16T08:26:09;6.90;95.00
19803;DHT22;66074;50.764;6.090;2023-01-16T08:28:35;6.90;95.10
19803;DHT22;66074;50.764;6.090;2023-01-16T08:33:34;6.90;94.90
19803;DHT22;66074;50.764;6.090;2023-01-16T08:36:00;6.90;95.00
19803;DHT22;66074;50.764;6.090;2023-01-16T08:38:27;7.00;94.90
19803;DHT22;66074;50.764;6.090;2023-01-16T08:40:53;6.90;94.80
19803;DHT22;66074;50.764;6.090;2023-01-16T08:43:18;6.90;94.80
19803;DHT22;66074;50.764;6.090;2023-01-16T08:46:03;6.90;94.90
19803;DHT22;66074;50.764;6.090;2023-01-16T08:48:52;6.90;94.80
19803;DHT22;66074;50.764;6.090;2023-01-16T08:51:36;6.90;94.70
19803;DHT22;66074;50.764;6.090;2023-01-16T08:54:03;6.90;94.70
19803;DHT22;66074;50.764;6.090;2023-01-16T08:56:28;7.00;94.70
19803;DHT22;66074;50.764;6.090;2023-01-16T08:58:54;6.90;94.90
19803;DHT22;66074;50.764;6.090;2023-01-16T09:01:20;6.90;94.60
19803;DHT22;66074;50.764;6.090;2023-01-16T09:03:45;6.90;94.60
19803;DHT22;66074;50.764;6.090;2023-01-16T09:06:11;6.90;94.70
19803;DHT22;66074;50.764;6.090;2023-01-16T09:08:37;6.90;94.60
19803;DHT22;66074;50.764;6.090;2023-01-16T09:11:03;6.90;94.60
19803;DHT22;66074;50.764;6.090;2023-01-16T09:13:47;6.90;94.60
19803;DHT22;66074;50.764;6.090;2023-01-16T09:16:18;7.00;94.60
19803;DHT22;66074;50.764;6.090;2023-01-16T09:18:44;7.00;94.60
19803;DHT22;66074;50.764;6.090;2023-01-16T09:21:09;7.10;94.70
19803;DHT22;66074;50.764;6.090;2023-01-16T09:23:35;7.10;94.70
19803;DHT22;66074;50.764;6.090;2023-01-16T09:26:01;7.10;94.70
19803;DHT22;66074;50.764;6.090;2023-01-16T09:28:26;7.20;94.60
19803;DHT22;66074;50.764;6.090;2023-01-16T09:30:52;7.20;94.60
19803;DHT22;66074;50.764;6.090;2023-01-16T09:33:17;7.20;94.60
19803;DHT22;66074;50.764;6.090;2023-01-16T09:35:43;7.20;94.40
19803;DHT22;66074;50.764;6.090;2023-01-16T09:38:09;7.20;94.50
19803;DHT22;66074;50.764;6.090;2023-01-16T09:40:34;7.20;94.60
19803;DHT22;66074;50.764;6.090;2023-01-16T09:43:33;7.30;94.60
19803;DHT22;66074;50.764;6.090;2023-01-16T09:46:19;7.40;94.40
19803;DHT22;66074;50.764;6.090;2023-01-16T09:51:26;7.40;94.40
19803;DHT22;66074;50.764;6.090;2023-01-16T09:54:00;7.40;94.50
19803;DHT22;66074;50.764;6.090;2023-01-16T09:56:49;7.40;94.60
19803;DHT22;66074;50.764;6.090;2023-01-16T09:59:44;7.40;94.50
19803;DHT22;66074;50.764;6.090;2023-01-16T10:02:25;7.40;94.40
19803;DHT22;66074;50.764;6.090;2023-01-16T10:04:53;7.30;94.10
19803;DHT22;66074;50.764;6.090;2023-01-16T10:13:15;7.40;94.60
19803;DHT22;66074;50.764;6.090;2023-01-16T10:26:57;7.60;94.60
19803;DHT22;66074;50.764;6.090;2023-01-16T10:32:12;7.60;94.70
19803;DHT22;66074;50.764;6.090;2023-01-16T10:35:02;7.70;94.40
19803;DHT22;66074;50.764;6.090;2023-01-16T10:37:31;7.80;94.50
19803;DHT22;66074;50.764;6.090;2023-01-16T10:39:59;7.80;94.70
19803;DHT22;66074;50.764;6.090;2023-01-16T10:42:31;7.80;94.60
19803;DHT22;66074;50.764;6.090;2023-01-16T10:45:20;7.80;94.50
19803;DHT22;66074;50.764;6.090;2023-01-16T10:48:11;7.80;94.40
19803;DHT22;66074;50.764;6.090;2023-01-16T10:50:57;7.80;94.80
19803;DHT22;66074;50.764;6.090;2023-01-16T10:53:23;7.80;94.50
19803;DHT22;66074;50.764;6.090;2023-01-16T10:55:50;7.80;94.50
19803;DHT22;66074;50.764;6.090;2023-01-16T10:58:37;7.90;94.50
19803;DHT22;66074;50.764;6.090;2023-01-16T11:03:43;7.80;94.40
19803;DHT22;66074;50.764;6.090;2023-01-16T11:06:11;7.90;94.40
19803;DHT22;66074;50.764;6.090;2023-01-16T11:08:37;7.90;94.50
19803;DHT22;66074;50.764;6.090;2023-01-16T11:11:03;8.00;94.70
19803;DHT22;66074;50.764;6.090;2023-01-16T11:13:30;8.00;94.70
19803;DHT22;66074;50.764;6.090;2023-01-16T11:16:21;8.20;94.60
19803;DHT22;66074;50.764;6.090;2023-01-16T11:19:18;8.30;94.50
19803;DHT22;66074;50.764;6.090;2023-01-16T11:21:52;8.40;94.20
19803;DHT22;66074;50.764;6.090;2023-01-16T11:24:21;8.40;94.40
19803;DHT22;66074;50.764;6.090;2023-01-16T11:26:51;8.40;94.40
19803;DHT22;66074;50.764;6.090;2023-01-16T11:29:19;8.60;94.30
19803;DHT22;66074;50.764;6.090;2023-01-16T11:31:55;8.50;94.20
19803;DHT22;66074;50.764;6.090;2023-01-16T11:34:23;8.50;94.20
19803;DHT22;66074;50.764;6.090;2023-01-16T11:36:58;8.50;94.10
19803;DHT22;66074;50.764;6.090;2023-01-16T11:39:27;8.50;94.30
19803;DHT22;66074;50.764;6.090;2023-01-16T11:41:55;8.60;94.30
19803;DHT22;66074;50.764;6.090;2023-01-16T11:44:27;8.50;94.20
19803;DHT22;66074;50.764;6.090;2023-01-16T11:47:15;8.50;94.10
19803;DHT22;66074;50.764;6.090;2023-01-16T11:49:53;8.50;94.10
19803;DHT22;66074;50.764;6.090;2023-01-16T11:52:21;8.50;94.20
19803;DHT22;66074;50.764;6.090;2023-01-16T11:55:01;8.60;94.20
19803;DHT22;66074;50.764;6.090;2023-01-16T12:19:51;8.30;94.20
19803;DHT22;66074;50.764;6.090;2023-01-16T12:30:25;8.20;94.50
19803;DHT22;66074;50.764;6.090;2023-01-16T12:33:12;8.20;94.50
19803;DHT22;66074;50.764;6.090;2023-01-16T12:39:06;8.30;94.60
19803;DHT22;66074;50.764;6.090;2023-01-16T12:42:02;8.40;94.50
19803;DHT22;66074;50.764;6.090;2023-01-16T12:58:22;8.20;94.30
19803;DHT22;66074;50.764;6.090;2023-01-16T13:06:16;8.00;94.00
19803;DHT22;66074;50.764;6.090;2023-01-16T13:08:48;8.30;94.10
19803;DHT22;66074;50.764;6.090;2023-01-16T13:11:28;8.40;94.30
19803;DHT22;66074;50.764;6.090;2023-01-16T13:14:15;8.40;94.10
19803;DHT22;66074;50.764;6.090;2023-01-16T13:17:00;8.50;94.20
19803;DHT22;66074;50.764;6.090;2023-01-16T13:19:30;8.40;94.00
19803;DHT22;66074;50.764;6.090;2023-01-16T13:24:38;8.40;94.00
19803;DHT22;66074;50.764;6.090;2023-01-16T13:27:13;8.30;94.00
19803;DHT22;66074;50.764;6.090;2023-01-16T13:29:48;8.30;94.10
19803;DHT22;66074;50.764;6.090;2023-01-16T13:32:32;8.30;94.00
19803;DHT22;66074;50.764;6.090;2023-01-16T13:35:26;8.30;94.10
19803;DHT22;66074;50.764;6.090;2023-01-16T13:43:29;8.20;94.80
19803;DHT22;66074;50.764;6.090;2023-01-16T13:46:14;8.10;94.60
19803;DHT22;66074;50.764;6.090;2023-01-16T13:48:40;8.00;94.60
19803;DHT22;66074;50.764;6.090;2023-01-16T13:51:13;8.00;94.70
19803;DHT22;66074;50.764;6.090;2023-01-16T13:53:46;8.00;94.90
19803;DHT22;66074;50.764;6.090;2023-01-16T13:56:19;7.90;95.30
19803;DHT22;66074;50.764;6.090;2023-01-16T13:58:58;7.90;95.00
19803;DHT22;66074;50.764;6.090;2023-01-16T14:06:54;8.00;95.20
19803;DHT22;66074;50.764;6.090;2023-01-16T14:10:15;8.00;95.40
19803;DHT22;66074;50.764;6.090;2023-01-16T14:13:23;8.00;95.50
19803;DHT22;66074;50.764;6.090;2023-01-16T14:16:07;8.00;95.30
19803;DHT22;66074;50.764;6.090;2023-01-16T14:21:43;8.00;95.40
19803;DHT22;66074;50.764;6.090;2023-01-16T14:24:28;8.00;95.20
19803;DHT22;66074;50.764;6.090;2023-01-16T14:27:02;7.90;95.30
19803;DHT22;66074;50.764;6.090;2023-01-16T14:29:52;7.90;95.30
19803;DHT22;66074;50.764;6.090;2023-01-16T14:32:25;7.90;95.60
19803;DHT22;66074;50.764;6.090;2023-01-16T14:35:09;7.90;95.40
19803;DHT22;66074;50.764;6.090;2023-01-16T14:37:40;7.90;95.60
19803;DHT22;66074;50.764;6.090;2023-01-16T14:42:54;8.00;95.50
19803;DHT22;66074;50.764;6.090;2023-01-16T14:45:41;8.00;95.70
19803;DHT22;66074;50.764;6.090;2023-01-16T14:54:20;8.00;95.60
19803;DHT22;66074;50.764;6.090;2023-01-16T14:57:18;8.00;95.80
19803;DHT22;66074;50.764;6.090;2023-01-16T15:02:33;7.90;95.80
19803;DHT22;66074;50.764;6.090;2023-01-16T15:05:11;7.90;95.90
19803;DHT22;66074;50.764;6.090;2023-01-16T15:07:45;7.90;95.90
19803;DHT22;66074;50.764;6.090;2023-01-16T15:10:40;7.90;95.80
19803;DHT22;66074;50.764;6.090;2023-01-16T15:15:41;7.90;95.70
19803;DHT22;66074;50.764;6.090;2023-01-16T15:18:12;7.90;95.70
19803;DHT22;66074;50.764;6.090;2023-01-16T15:20:57;7.80;95.80
19803;DHT22;66074;50.764;6.090;2023-01-16T15:23:42;7.70;95.70
19803;DHT22;66074;50.764;6.090;2023-01-16T15:29:09;7.70;95.70
19803;DHT22;66074;50.764;6.090;2023-01-16T15:31:39;7.60;95.60
19803;DHT22;66074;50.764;6.090;2023-01-16T15:34:20;7.60;95.60
19803;DHT22;66074;50.764;6.090;2023-01-16T15:36:51;7.60;95.70
19803;DHT22;66074;50.764;6.090;2023-01-16T15:42:05;7.50;95.40
19803;DHT22;66074;50.764;6.090;2023-01-16T15:44:52;7.50;95.70
19803;DHT22;66074;50.764;6.090;2023-01-16T15:52:45;7.40;95.60
19803;DHT22;66074;50.764;6.090;2023-01-16T15:55:22;7.50;95.60
19803;DHT22;66074;50.764;6.090;2023-01-16T15:57:51;7.30;95.90
19803;DHT22;66074;50.764;6.090;2023-01-16T16:02:48;7.20;95.80
19803;DHT22;66074;50.764;6.090;2023-01-16T16:05:16;7.20;95.80
19803;DHT22;66074;50.764;6.090;2023-01-16T16:07:44;7.20;95.80
19803;DHT22;66074;50.764;6.090;2023-01-16T16:10:12;7.20;95.50
19803;DHT22;66074;50.764;6.090;2023-01-16T16:12:59;7.10;95.70
19803;DHT22;66074;50.764;6.090;2023-01-16T16:15:25;7.10;95.80
19803;DHT22;66074;50.764;6.090;2023-01-16T16:18:19;7.10;95.90
19803;DHT22;66074;50.764;6.090;2023-01-16T16:20:47;7.10;96.20
19803;DHT22;66074;50.764;6.090;2023-01-16T16:23:17;7.10;96.10
19803;DHT22;66074;50.764;6.090;2023-01-16T16:25:49;7.10;96.00
19803;DHT22;66074;50.764;6.090;2023-01-16T16:28:20;7.20;96.20
19803;DHT22;66074;50.764;6.090;2023-01-16T16:31:22;7.20;96.10
19803;DHT22;66074;50.764;6.090;2023-01-16T16:33:41;7.10;96.20
19803;DHT22;66074;50.764;6.090;2023-01-16T16:36:13;7.10;96.00
19803;DHT22;66074;50.764;6.090;2023-01-16T16:43:45;7.00;96.20
19803;DHT22;66074;50.764;6.090;2023-01-16T16:51:33;7.10;96.20
19803;DHT22;66074;50.764;6.090;2023-01-16T16:54:10;7.00;95.90
19803;DHT22;66074;50.764;6.090;2023-01-16T16:56:43;7.00;96.50
19803;DHT22;66074;50.764;6.090;2023-01-16T16:59:28;6.90;96.50
19803;DHT22;66074;50.764;6.090;2023-01-16T17:01:58;6.90;96.50
19803;DHT22;66074;50.764;6.090;2023-01-16T17:04:29;6.90;96.30
19803;DHT22;66074;50.764;6.090;2023-01-16T17:06:55;6.90;96.30
19803;DHT22;66074;50.764;6.090;2023-01-16T17:09:24;6.90;96.20
19803;DHT22;66074;50.764;6.090;2023-01-16T17:11:50;6.80;96.50
19803;DHT22;66074;50.764;6.090;2023-01-16T17:14:16;6.80;96.50
19803;DHT22;66074;50.764;6.090;2023-01-16T17:16:42;6.80;96.50
19803;DHT22;66074;50.764;6.090;2023-01-16T17:19:25;6.80;96.60
19803;DHT22;66074;50.764;6.090;2023-01-16T17:21:52;6.80;96.60
19803;DHT22;66074;50.764;6.090;2023-01-16T17:24:19;6.80;96.50
19803;DHT22;66074;50.764;6.090;2023-01-16T17:26:45;6.80;96.70
19803;DHT22;66074;50.764;6.090;2023-01-16T17:29:11;6.80;96.60
19803;DHT22;66074;50.764;6.090;2023-01-16T17:31:38;6.70;96.60
19803;DHT22;66074;50.764;6.090;2023-01-16T17:34:04;6.70;96.80
19803;DHT22;66074;50.764;6.090;2023-01-16T17:36:30;6.60;96.70
19803;DHT22;66074;50.764;6.090;2023-01-16T17:38:58;6.70;96.50
19803;DHT22;66074;50.764;6.090;2023-01-16T17:41:34;6.60;96.60
19803;DHT22;66074;50.764;6.090;2023-01-16T17:44:22;6.60;96.70
19803;DHT22;66074;50.764;6.090;2023-01-16T17:47:07;6.50;96.90
19803;DHT22;66074;50.764;6.090;2023-01-16T17:49:33;6.50;96.80
19803;DHT22;66074;50.764;6.090;2023-01-16T17:52:22;6.50;96.90
19803;DHT22;66074;50.764;6.090;2023-01-16T17:54:48;6.40;96.90
19803;DHT22;66074;50.764;6.090;2023-01-16T17:57:32;6.40;97.10
19803;DHT22;66074;50.764;6.090;2023-01-16T17:59:59;6.40;97.20
19803;DHT22;66074;50.764;6.090;2023-01-16T18:02:24;6.40;97.10
19803;DHT22;66074;50.764;6.090;2023-01-16T18:04:50;6.40;97.40
19803;DHT22;66074;50.764;6.090;2023-01-16T18:07:16;6.30;97.40
19803;DHT22;66074;50.764;6.090;2023-01-16T18:09:42;6.30;97.50
19803;DHT22;66074;50.764;6.090;2023-01-16T18:12:09;6.30;97.40
19803;DHT22;66074;50.764;6.090;2023-01-16T18:14:54;6.30;97.40
19803;DHT22;66074;50.764;6.090;2023-01-16T18:17:38;6.10;98.00
19803;DHT22;66074;50.764;6.090;2023-01-16T18:20:05;6.00;97.30
19803;DHT22;66074;50.764;6.090;2023-01-16T18:22:32;6.00;97.40
19803;DHT22;66074;50.764;6.090;2023-01-16T18:25:01;5.90;97.80
19803;DHT22;66074;50.764;6.090;2023-01-16T18:27:27;5.70;97.20
19803;DHT22;66074;50.764;6.090;2023-01-16T18:29:53;5.50;97.00
19803;DHT22;66074;50.764;6.090;2023-01-16T18:32:19;5.30;97.00
19803;DHT22;66074;50.764;6.090;2023-01-16T18:34:50;5.20;96.90
19803;DHT22;66074;50.764;6.090;2023-01-16T18:37:17;5.10;97.20
19803;DHT22;66074;50.764;6.090;2023-01-16T18:39:43;5.10;97.10
19803;DHT22;66074;50.764;6.090;2023-01-16T18:42:28;5.00;97.20
19803;DHT22;66074;50.764;6.090;2023-01-16T18:45:13;4.90;97.30
19803;DHT22;66074;50.764;6.090;2023-01-16T18:47:58;4.90;97.80
19803;DHT22;66074;50.764;6.090;2023-01-16T18:50:43;4.90;97.60
19803;DHT22;66074;50.764;6.090;2023-01-16T18:53:36;4.90;97.80
19803;DHT22;66074;50.764;6.090;2023-01-16T18:56:30;4.90;98.50
19803;DHT22;66074;50.764;6.090;2023-01-16T18:59:18;4.90;98.30